CheckWX is a tool to help pilots better visualize weather data.  It is not intended as a substitute for an official pre-flight weather briefing.

07:52:42 UTC

KCLM METAR
William R Fairchild International Airport
Port Angeles, Washington, USA
Current

9 mins ago

KCLM 230744Z AUTO 07003KT 10SM BKN010 OVC019 04/03 A3001 RMK AO2 CIG 008V013 T00440033
Observed
Feb-23 @ 07:44 UTC
Wind
  • 070° at 3 KTS
Visibility
10 SM
Flight Rules
MVFR
Cloud Levels
  • Broken at 1,000' AGL
  • Overcast at 1,900' AGL
Temperature
C / 39°F
Dewpoint
C / 37°F
Humidity
93%
Altimeter
30.01" Hg
Pressure
1016.22 hPa
Previous

60 mins ago

KCLM 230653Z AUTO 11007KT 10SM SCT018 BKN025 OVC110 04/03 A3005 RMK AO2 RAE06 SLP176 P0000 T00390028
Observed
Feb-23 @ 06:53 UTC
Wind
  • 110° at 7 KTS
Visibility
10 SM
Flight Rules
MVFR
Cloud Levels
  • Scattered at 1,800' AGL
  • Broken at 2,500' AGL
  • Overcast at 11,000' AGL
Temperature
C / 39°F
Dewpoint
C / 37°F
Humidity
93%
Altimeter
30.05" Hg
Pressure
1017.62 hPa
Current Rain
0.01"
Previous

2 hours ago

KCLM 230607Z AUTO 11008KT 10SM FEW016 SCT030 OVC095 04/03 A3008 RMK AO2 RAE06 P0000 T00440028
Observed
Feb-23 @ 06:07 UTC
Wind
  • 110° at 8 KTS
Visibility
10 SM
Flight Rules
VFR
Cloud Levels
  • Few at 1,600' AGL
  • Scattered at 3,000' AGL
  • Overcast at 9,500' AGL
Temperature
C / 39°F
Dewpoint
C / 37°F
Humidity
93%
Altimeter
30.08" Hg
Pressure
1018.62 hPa
Current Rain
0.01"